createdAt,value
2018-11-11T00:00:57.869Z,91.50
2018-11-11T00:03:25.155Z,91.74
2018-11-11T00:05:52.388Z,91.94
2018-11-11T00:08:19.693Z,92.34
2018-11-11T00:10:47.033Z,92.78
2018-11-11T00:13:14.340Z,93.21
2018-11-11T00:15:41.608Z,94.59
2018-11-11T00:18:08.875Z,94.40
2018-11-11T00:20:36.067Z,94.31
2018-11-11T00:23:03.331Z,95.00
2018-11-11T00:25:30.547Z,95.48
2018-11-11T00:27:57.829Z,95.66
2018-11-11T00:30:25.014Z,97.03
2018-11-11T00:32:52.274Z,97.36
2018-11-11T00:35:19.488Z,98.24
2018-11-11T00:37:46.712Z,98.12
2018-11-11T00:40:14.828Z,98.00
2018-11-11T00:42:42.267Z,98.09
2018-11-11T00:45:10.136Z,98.94
2018-11-11T00:47:37.533Z,98.92
2018-11-11T00:50:06.039Z,99.90
2018-11-11T00:52:33.329Z,99.87
2018-11-11T00:55:00.571Z,100.00
2018-11-11T00:57:27.844Z,100.00
2018-11-11T00:59:55.161Z,99.80
2018-11-11T01:02:22.490Z,99.42
2018-11-11T01:04:49.695Z,99.52
2018-11-11T01:07:17.183Z,99.94
2018-11-11T01:09:44.450Z,99.81
2018-11-11T01:12:11.806Z,98.90
2018-11-11T01:14:39.030Z,99.15
2018-11-11T01:17:06.701Z,98.96
2018-11-11T01:19:33.972Z,99.24
2018-11-11T01:22:01.236Z,99.96
2018-11-11T01:24:28.501Z,99.50
2018-11-11T01:26:55.830Z,99.82
2018-11-11T01:29:23.026Z,99.81
2018-11-11T01:31:50.332Z,99.28
2018-11-11T01:34:17.592Z,98.35
2018-11-11T01:36:44.857Z,99.12
2018-11-11T01:39:12.170Z,98.63
2018-11-11T01:41:39.421Z,99.33
2018-11-11T01:44:07.624Z,99.47
2018-11-11T01:46:34.922Z,98.93
2018-11-11T01:49:02.197Z,98.65
2018-11-11T01:51:29.460Z,99.48
2018-11-11T01:53:56.690Z,99.55
2018-11-11T01:56:25.116Z,100.00
2018-11-11T01:58:52.379Z,100.00
2018-11-11T02:01:19.619Z,100.00
2018-11-11T02:03:46.834Z,100.00
2018-11-11T02:06:14.029Z,100.00
2018-11-11T02:08:41.287Z,100.00
2018-11-11T02:11:08.581Z,100.00
2018-11-11T02:13:35.815Z,100.00
2018-11-11T02:16:03.183Z,100.00
2018-11-11T02:18:30.556Z,100.00
2018-11-11T02:20:57.905Z,100.00
2018-11-11T02:23:25.129Z,100.00
2018-11-11T02:25:52.337Z,100.00
2018-11-11T02:28:19.554Z,100.00
2018-11-11T02:30:46.857Z,100.00
2018-11-11T02:33:14.074Z,100.00
2018-11-11T02:35:41.302Z,100.00
2018-11-11T02:38:08.576Z,100.00
2018-11-11T02:40:35.781Z,99.11
2018-11-11T02:43:03.062Z,99.80
2018-11-11T02:45:30.324Z,99.12
2018-11-11T02:47:57.615Z,99.40
2018-11-11T02:50:24.890Z,98.66
2018-11-11T02:52:52.110Z,98.89
2018-11-11T02:55:19.349Z,97.73
2018-11-11T02:57:47.064Z,97.86
2018-11-11T03:00:16.698Z,97.21
2018-11-11T03:02:44.728Z,97.14
2018-11-11T03:05:13.141Z,97.42
2018-11-11T03:07:40.438Z,97.41
2018-11-11T03:10:08.646Z,97.38
2018-11-11T03:12:36.024Z,96.31
2018-11-11T03:15:03.446Z,96.13
2018-11-11T03:17:30.693Z,96.88
2018-11-11T03:19:57.955Z,98.57
2018-11-11T03:22:25.122Z,99.54
2018-11-11T03:24:52.393Z,100.00
2018-11-11T03:27:19.712Z,100.00
2018-11-11T03:29:46.984Z,100.00
2018-11-11T03:32:14.277Z,100.00
2018-11-11T03:34:41.556Z,100.00
2018-11-11T03:37:08.829Z,100.00
2018-11-11T03:39:36.049Z,100.00
2018-11-11T03:42:03.385Z,100.00
2018-11-11T03:44:30.640Z,100.00
2018-11-11T03:46:57.959Z,100.00
2018-11-11T03:49:25.511Z,100.00
2018-11-11T03:51:52.735Z,100.00
2018-11-11T03:54:19.999Z,100.00
2018-11-11T03:56:47.217Z,100.00
2018-11-11T03:59:14.457Z,100.00
2018-11-11T04:01:41.729Z,100.00
2018-11-11T04:04:09.041Z,100.00
2018-11-11T04:06:36.295Z,100.00
2018-11-11T04:09:07.234Z,100.00
2018-11-11T04:11:34.488Z,100.00
2018-11-11T04:14:01.763Z,100.00
2018-11-11T04:16:28.952Z,99.95
2018-11-11T04:18:56.200Z,100.00
2018-11-11T04:21:23.447Z,100.00
2018-11-11T04:23:51.488Z,99.55
2018-11-11T04:26:18.696Z,99.08
2018-11-11T04:28:46.016Z,98.33
2018-11-11T04:31:13.299Z,98.77
2018-11-11T04:33:40.764Z,98.72
2018-11-11T04:36:08.036Z,100.00
2018-11-11T04:38:35.248Z,99.86
2018-11-11T04:41:02.502Z,99.91
2018-11-11T04:43:29.763Z,100.00
2018-11-11T04:45:56.970Z,100.00
2018-11-11T04:48:24.262Z,100.00
2018-11-11T04:50:51.526Z,100.00
2018-11-11T04:53:18.883Z,100.00
2018-11-11T04:55:46.108Z,100.00
2018-11-11T04:58:13.479Z,100.00
2018-11-11T05:00:40.711Z,100.00
2018-11-11T05:03:07.980Z,100.00
2018-11-11T05:05:35.272Z,99.98
2018-11-11T05:08:02.461Z,100.00
2018-11-11T05:10:29.751Z,100.00
2018-11-11T05:12:57.047Z,98.99
2018-11-11T05:15:24.298Z,99.02
2018-11-11T05:17:51.555Z,99.32
2018-11-11T05:20:18.761Z,98.58
2018-11-11T05:22:45.996Z,98.02
2018-11-11T05:25:13.956Z,98.52
2018-11-11T05:27:41.554Z,97.97
2018-11-11T05:30:09.441Z,97.11
2018-11-11T05:32:36.693Z,98.05
2018-11-11T05:35:04.157Z,98.63
2018-11-11T05:37:31.393Z,98.81
2018-11-11T05:39:58.634Z,99.69
2018-11-11T05:42:29.032Z,98.55
2018-11-11T05:44:56.290Z,99.26
2018-11-11T05:47:23.578Z,99.61
2018-11-11T05:49:50.847Z,100.00
2018-11-11T05:52:18.080Z,100.00
2018-11-11T05:54:45.456Z,100.00
2018-11-11T05:57:12.675Z,100.00
2018-11-11T05:59:39.899Z,100.00
2018-11-11T06:02:07.135Z,100.00
2018-11-11T06:04:34.431Z,100.00
2018-11-11T06:07:01.656Z,100.00
2018-11-11T06:09:28.880Z,100.00
2018-11-11T06:11:56.127Z,100.00
2018-11-11T06:14:23.351Z,100.00
2018-11-11T06:16:50.619Z,100.00
2018-11-11T06:19:17.897Z,100.00
2018-11-11T06:21:45.157Z,100.00
2018-11-11T06:24:12.424Z,100.00
2018-11-11T06:26:39.707Z,100.00
2018-11-11T06:29:07.272Z,100.00
2018-11-11T06:31:34.522Z,100.00
2018-11-11T06:34:01.797Z,100.00
2018-11-11T06:36:29.003Z,100.00
2018-11-11T06:38:56.280Z,100.00
2018-11-11T06:41:23.511Z,100.00
2018-11-11T06:43:50.768Z,100.00
2018-11-11T06:46:18.075Z,100.00
2018-11-11T06:48:45.400Z,100.00
2018-11-11T06:51:12.601Z,100.00
2018-11-11T06:53:39.898Z,100.00
2018-11-11T06:56:10.719Z,100.00
2018-11-11T06:58:37.978Z,100.00
2018-11-11T07:01:05.324Z,100.00
2018-11-11T07:04:01.548Z,100.00
2018-11-11T07:06:29.234Z,100.00
2018-11-11T07:08:56.503Z,100.00
2018-11-11T07:11:23.743Z,100.00
2018-11-11T07:13:51.043Z,100.00
2018-11-11T07:16:18.330Z,100.00
2018-11-11T07:18:46.173Z,100.00
2018-11-11T07:21:15.092Z,100.00
2018-11-11T07:23:42.448Z,100.00
2018-11-11T07:26:09.784Z,100.00
2018-11-11T07:28:37.030Z,100.00
2018-11-11T07:31:04.976Z,100.00
2018-11-11T07:33:32.241Z,100.00
2018-11-11T07:35:59.567Z,100.00
2018-11-11T07:38:26.804Z,100.00
2018-11-11T07:40:54.065Z,100.00
2018-11-11T07:43:21.505Z,96.01
2018-11-11T07:45:49.357Z,89.90
2018-11-11T07:48:16.607Z,85.85
2018-11-11T07:50:43.841Z,84.19
2018-11-11T07:53:11.066Z,85.30
2018-11-11T07:55:38.362Z,81.43
2018-11-11T07:58:05.734Z,82.89
2018-11-11T08:00:32.937Z,81.73
2018-11-11T08:03:00.172Z,77.43
2018-11-11T08:05:27.423Z,73.72
2018-11-11T08:07:54.686Z,72.93
2018-11-11T08:10:33.402Z,71.92
2018-11-11T08:13:00.700Z,72.89
2018-11-11T08:15:27.952Z,72.40
2018-11-11T08:17:55.268Z,71.36
2018-11-11T08:20:22.559Z,68.02
2018-11-11T08:22:50.388Z,66.45
2018-11-11T08:25:17.717Z,64.41
2018-11-11T08:27:44.949Z,62.43
2018-11-11T08:30:12.186Z,57.67
2018-11-11T08:35:16.087Z,56.55
2018-11-11T08:37:43.391Z,55.29
2018-11-11T08:40:10.661Z,50.97
2018-11-11T08:42:37.964Z,50.18
2018-11-11T08:45:07.331Z,53.01
2018-11-11T08:47:34.608Z,49.55
2018-11-11T08:50:01.849Z,51.39
2018-11-11T08:52:29.120Z,53.79
2018-11-11T08:54:56.448Z,55.17
2018-11-11T08:57:23.724Z,57.21
2018-11-11T08:59:50.985Z,58.28
2018-11-11T09:02:18.282Z,59.30
2018-11-11T09:04:45.590Z,61.55
2018-11-11T09:07:12.731Z,60.98
2018-11-11T09:09:39.995Z,60.24
2018-11-11T09:12:07.282Z,61.21
2018-11-11T09:14:34.536Z,60.90
2018-11-11T09:17:01.788Z,60.60
2018-11-11T09:19:28.980Z,60.10
2018-11-11T09:21:56.240Z,60.12
2018-11-11T09:24:23.464Z,65.12
2018-11-11T09:26:50.738Z,64.40
2018-11-11T09:29:18.022Z,62.82
2018-11-11T09:31:45.299Z,64.23
2018-11-11T09:34:12.499Z,61.01
2018-11-11T09:36:39.711Z,62.73
2018-11-11T09:39:08.353Z,62.36
2018-11-11T09:41:35.550Z,63.36
2018-11-11T09:44:02.802Z,62.45
2018-11-11T09:46:30.063Z,60.15
2018-11-11T09:48:57.357Z,60.67
2018-11-11T09:51:24.646Z,60.26
2018-11-11T09:53:51.880Z,59.26
2018-11-11T09:56:19.129Z,61.31
2018-11-11T09:58:46.540Z,61.50
2018-11-11T10:01:13.705Z,61.83
2018-11-11T10:03:44.399Z,60.39
2018-11-11T10:06:22.526Z,60.38
2018-11-11T10:09:01.830Z,61.69
2018-11-11T10:11:36.088Z,65.26
2018-11-11T10:14:15.227Z,69.92
2018-11-11T10:17:46.466Z,69.44
2018-11-11T10:20:18.182Z,66.01
2018-11-11T10:22:49.637Z,66.85
2018-11-11T10:25:22.711Z,69.40
2018-11-11T10:27:55.443Z,72.28
2018-11-11T10:30:27.816Z,75.02
2018-11-11T10:33:17.130Z,76.05
2018-11-11T10:35:48.016Z,77.36
2018-11-11T10:38:20.966Z,76.41
2018-11-11T10:40:51.327Z,76.43
2018-11-11T10:43:38.669Z,76.07
2018-11-11T10:46:24.714Z,77.04
2018-11-11T10:48:57.711Z,78.34
2018-11-11T10:51:24.976Z,77.98
2018-11-11T10:53:52.173Z,79.68
2018-11-11T10:56:19.435Z,79.63
2018-11-11T10:58:46.734Z,80.00
2018-11-11T11:01:22.669Z,73.96
2018-11-11T11:03:50.480Z,70.57
2018-11-11T11:06:22.326Z,68.67
2018-11-11T11:08:55.366Z,67.00
2018-11-11T11:11:22.759Z,66.87
2018-11-11T11:13:50.113Z,66.00
2018-11-11T11:16:17.611Z,65.57
2018-11-11T11:18:44.943Z,66.62
2018-11-11T11:21:12.448Z,67.12
2018-11-11T11:23:39.853Z,65.98
2018-11-11T11:26:07.090Z,66.01
2018-11-11T11:28:34.431Z,67.70
2018-11-11T11:31:01.654Z,66.71
2018-11-11T11:33:28.891Z,65.89
2018-11-11T11:35:56.172Z,65.45
2018-11-11T11:38:23.473Z,65.22
2018-11-11T11:40:50.673Z,66.23
2018-11-11T11:43:17.879Z,67.72
2018-11-11T11:45:45.152Z,66.54
2018-11-11T11:48:12.394Z,66.35
2018-11-11T11:50:39.626Z,68.09
2018-11-11T11:53:06.875Z,69.32
2018-11-11T11:55:34.145Z,69.27
2018-11-11T11:58:14.903Z,71.67
2018-11-11T12:00:42.359Z,71.50
2018-11-11T12:03:09.595Z,71.05
2018-11-11T12:05:36.805Z,71.73
2018-11-11T12:08:04.078Z,72.35
2018-11-11T12:10:31.372Z,72.80
2018-11-11T12:12:58.597Z,73.15
2018-11-11T12:15:25.856Z,74.17
2018-11-11T12:17:53.104Z,73.19
2018-11-11T12:20:20.308Z,74.11
2018-11-11T12:22:47.661Z,75.17
2018-11-11T12:25:14.842Z,74.70
2018-11-11T12:27:42.115Z,75.60
2018-11-11T12:30:09.928Z,75.87
2018-11-11T12:32:37.360Z,74.55
2018-11-11T12:35:05.054Z,72.72
2018-11-11T12:37:32.265Z,72.21
2018-11-11T12:39:59.933Z,72.33
2018-11-11T12:42:27.090Z,72.90
2018-11-11T12:44:54.446Z,72.60
2018-11-11T12:47:21.579Z,71.05
2018-11-11T12:49:48.830Z,70.49
2018-11-11T12:52:16.107Z,70.70
2018-11-11T12:54:43.401Z,71.96
2018-11-11T12:57:10.651Z,72.50
2018-11-11T12:59:37.979Z,72.31
2018-11-11T13:02:05.281Z,73.16
2018-11-11T13:04:32.570Z,74.00
2018-11-11T13:06:59.782Z,73.31
2018-11-11T13:09:27.020Z,74.15
2018-11-11T13:11:54.255Z,74.64
2018-11-11T13:14:21.522Z,75.20
2018-11-11T13:16:48.701Z,74.86
2018-11-11T13:19:15.874Z,74.55
2018-11-11T13:21:43.183Z,74.02
2018-11-11T13:24:10.340Z,73.38
2018-11-11T13:26:37.542Z,73.84
2018-11-11T13:29:04.805Z,73.46
2018-11-11T13:31:32.044Z,72.69
2018-11-11T13:33:59.312Z,73.07
2018-11-11T13:36:26.565Z,73.39
2018-11-11T13:38:53.823Z,72.88
2018-11-11T13:41:21.108Z,73.12
2018-11-11T13:43:48.337Z,73.26
2018-11-11T13:46:15.620Z,73.50
2018-11-11T13:48:42.833Z,72.80
2018-11-11T13:51:10.061Z,71.24
2018-11-11T13:53:37.291Z,70.69
2018-11-11T13:56:04.578Z,70.00
2018-11-11T13:58:31.925Z,69.43
2018-11-11T14:00:59.166Z,70.28
2018-11-11T14:03:26.377Z,71.04
2018-11-11T14:05:53.698Z,72.49
2018-11-11T14:08:21.177Z,71.78
2018-11-11T14:10:48.550Z,72.36
2018-11-11T14:13:15.842Z,71.25
2018-11-11T14:15:43.191Z,70.26
2018-11-11T14:18:10.657Z,67.99
2018-11-11T14:20:37.922Z,67.86
2018-11-11T14:23:05.374Z,67.19
2018-11-11T14:25:32.637Z,66.25
2018-11-11T14:27:59.837Z,66.49
2018-11-11T14:30:27.847Z,65.42
2018-11-11T14:32:56.148Z,64.92
2018-11-11T14:35:23.468Z,64.59
2018-11-11T14:37:50.938Z,64.24
2018-11-11T14:40:22.666Z,64.71
2018-11-11T14:42:49.934Z,64.29
2018-11-11T14:45:18.020Z,63.43
2018-11-11T14:47:46.570Z,63.02
2018-11-11T14:50:14.782Z,63.96
2018-11-11T14:52:42.644Z,65.74
2018-11-11T14:55:13.665Z,65.74
2018-11-11T14:57:41.033Z,65.34
2018-11-11T15:00:10.467Z,64.16
2018-11-11T15:02:37.788Z,64.46
2018-11-11T15:05:06.856Z,63.96
2018-11-11T15:07:34.059Z,63.10
2018-11-11T15:10:01.308Z,63.31
2018-11-11T15:12:28.644Z,63.68
2018-11-11T15:14:55.891Z,64.50
2018-11-11T15:17:23.221Z,64.57
2018-11-11T15:19:50.586Z,64.21
2018-11-11T15:22:17.746Z,63.79
2018-11-11T15:24:45.091Z,65.82
2018-11-11T15:27:12.347Z,66.50
2018-11-11T15:29:39.653Z,67.16
2018-11-11T15:32:06.947Z,67.68
2018-11-11T15:34:34.200Z,69.29
2018-11-11T15:37:01.497Z,71.05
2018-11-11T15:39:28.779Z,73.74
2018-11-11T15:41:56.047Z,77.10
2018-11-11T15:44:23.274Z,80.22
2018-11-11T15:46:50.571Z,82.77
2018-11-11T15:49:18.805Z,84.04
2018-11-11T15:51:46.063Z,84.23
2018-11-11T15:54:13.362Z,85.49
2018-11-11T15:56:40.632Z,86.07
2018-11-11T15:59:07.937Z,86.85
2018-11-11T16:01:35.178Z,87.29
2018-11-11T16:04:02.485Z,87.01
2018-11-11T16:06:29.861Z,87.35
2018-11-11T16:08:57.363Z,88.20
2018-11-11T16:11:24.639Z,88.46
2018-11-11T16:13:52.069Z,88.78
2018-11-11T16:16:19.628Z,89.23
2018-11-11T16:18:46.883Z,88.67
2018-11-11T16:21:14.146Z,89.33
2018-11-11T16:23:41.518Z,88.48
2018-11-11T16:26:08.829Z,88.47
2018-11-11T16:28:36.249Z,88.73
2018-11-11T16:31:03.931Z,89.83
2018-11-11T16:33:31.265Z,89.92
2018-11-11T16:35:58.550Z,90.25
2018-11-11T16:38:25.796Z,90.52
2018-11-11T16:40:53.459Z,90.48
2018-11-11T16:43:20.889Z,90.95
2018-11-11T16:45:48.174Z,90.76
2018-11-11T16:48:15.515Z,91.15
2018-11-11T16:50:42.809Z,90.89
2018-11-11T16:53:10.356Z,90.88
2018-11-11T16:55:38.095Z,89.94
2018-11-11T16:58:05.459Z,90.47
2018-11-11T17:00:34.128Z,91.01
2018-11-11T17:03:02.367Z,91.80
2018-11-11T17:05:31.061Z,91.29
2018-11-11T17:07:58.408Z,91.56
2018-11-11T17:10:27.645Z,91.41
2018-11-11T17:12:56.170Z,91.98
2018-11-11T17:15:24.935Z,91.44
2018-11-11T17:17:52.173Z,91.16
2018-11-11T17:20:20.449Z,91.94
2018-11-11T17:22:48.580Z,91.79
2018-11-11T17:25:16.584Z,91.38
2018-11-11T17:27:44.194Z,91.21
2018-11-11T17:30:13.499Z,90.73
2018-11-11T17:32:41.301Z,90.65
2018-11-11T17:35:08.791Z,90.55
2018-11-11T17:37:36.017Z,89.72
2018-11-11T17:40:04.708Z,89.65
2018-11-11T17:42:31.874Z,88.95
2018-11-11T17:44:59.168Z,88.70
2018-11-11T17:47:26.452Z,88.64
2018-11-11T17:49:53.724Z,88.09
2018-11-11T17:52:21.002Z,88.84
2018-11-11T17:54:48.400Z,88.68
2018-11-11T17:57:15.660Z,89.87
2018-11-11T17:59:42.941Z,89.43
2018-11-11T18:02:10.223Z,90.76
2018-11-11T18:04:37.488Z,91.63
2018-11-11T18:07:04.851Z,91.71
2018-11-11T18:09:32.139Z,92.03
2018-11-11T18:11:59.403Z,92.26
2018-11-11T18:14:26.754Z,92.98
2018-11-11T18:16:54.057Z,93.65
2018-11-11T18:19:21.457Z,92.77
2018-11-11T18:21:48.668Z,92.89
2018-11-11T18:24:15.990Z,93.33
2018-11-11T18:26:43.224Z,93.30
2018-11-11T18:29:10.480Z,92.94
2018-11-11T18:31:37.774Z,93.68
2018-11-11T18:34:05.304Z,93.63
2018-11-11T18:36:32.996Z,93.38
2018-11-11T18:39:00.263Z,93.71
2018-11-11T18:41:27.524Z,93.14
2018-11-11T18:43:54.904Z,93.46
2018-11-11T18:46:22.183Z,92.72
2018-11-11T18:48:49.571Z,93.14
2018-11-11T18:51:16.836Z,93.22
2018-11-11T18:53:44.128Z,93.46
2018-11-11T18:56:11.400Z,93.66
2018-11-11T18:58:39.187Z,93.22
2018-11-11T19:01:06.435Z,93.62
2018-11-11T19:03:33.654Z,93.50
2018-11-11T19:06:00.916Z,92.98
2018-11-11T19:08:28.308Z,93.80
2018-11-11T19:10:55.717Z,93.54
2018-11-11T19:13:22.944Z,94.56
2018-11-11T19:15:50.172Z,93.76
2018-11-11T19:18:17.466Z,94.35
2018-11-11T19:20:44.685Z,93.72
2018-11-11T19:23:11.998Z,94.07
2018-11-11T19:25:39.252Z,94.17
2018-11-11T19:28:06.749Z,94.28
2018-11-11T19:30:33.991Z,94.34
2018-11-11T19:33:01.192Z,94.87
2018-11-11T19:35:28.438Z,95.10
2018-11-11T19:37:56.439Z,94.49
2018-11-11T19:40:24.835Z,94.89
2018-11-11T19:42:52.859Z,95.77
2018-11-11T19:45:21.493Z,95.11
2018-11-11T19:47:48.731Z,95.33
2018-11-11T19:50:17.371Z,95.61
2018-11-11T19:52:45.892Z,94.98
2018-11-11T19:55:13.964Z,95.45
2018-11-11T19:57:41.630Z,95.71
2018-11-11T20:00:13.099Z,95.53
2018-11-11T20:02:41.380Z,95.74
2018-11-11T20:05:10.150Z,96.32
2018-11-11T20:07:37.380Z,95.43
2018-11-11T20:10:06.714Z,96.13
2018-11-11T20:12:34.025Z,95.59
2018-11-11T20:15:01.353Z,95.84
2018-11-11T20:17:28.712Z,95.57
2018-11-11T20:19:55.984Z,95.93
2018-11-11T20:22:23.290Z,95.20
2018-11-11T20:24:50.686Z,95.47
2018-11-11T20:27:18.129Z,95.47
2018-11-11T20:29:45.348Z,95.17
2018-11-11T20:32:12.737Z,95.72
2018-11-11T20:34:39.969Z,95.25
2018-11-11T20:37:07.239Z,95.33
2018-11-11T20:39:34.605Z,95.28
2018-11-11T20:42:01.887Z,95.82
2018-11-11T20:44:29.147Z,95.14
2018-11-11T20:46:56.510Z,95.25
2018-11-11T20:49:23.793Z,94.98
2018-11-11T20:51:51.120Z,95.24
2018-11-11T20:54:18.453Z,95.83
2018-11-11T20:56:46.017Z,96.28
2018-11-11T20:59:13.283Z,96.47
2018-11-11T21:01:40.543Z,96.10
2018-11-11T21:04:07.921Z,95.90
2018-11-11T21:06:35.178Z,95.70
2018-11-11T21:09:02.965Z,96.26
2018-11-11T21:11:30.333Z,95.56
2018-11-11T21:13:57.685Z,96.31
2018-11-11T21:16:24.954Z,95.43
2018-11-11T21:18:53.083Z,95.25
2018-11-11T21:21:20.428Z,95.42
2018-11-11T21:23:47.620Z,95.76
2018-11-11T21:26:14.844Z,96.00
2018-11-11T21:28:42.014Z,95.83
2018-11-11T21:31:09.232Z,95.63
2018-11-11T21:33:36.477Z,94.98
2018-11-11T21:36:03.985Z,95.61
2018-11-11T21:38:31.339Z,95.28
2018-11-11T21:40:58.676Z,94.58
2018-11-11T21:43:26.009Z,95.30
2018-11-11T21:45:53.381Z,95.29
2018-11-11T21:48:20.725Z,95.21
2018-11-11T21:50:48.052Z,94.76
2018-11-11T21:53:26.528Z,94.80
2018-11-11T21:55:53.858Z,95.23
2018-11-11T21:58:21.157Z,95.05
2018-11-11T22:00:48.394Z,94.64
2018-11-11T22:03:15.629Z,94.33
2018-11-11T22:05:42.962Z,94.53
2018-11-11T22:08:10.183Z,94.30
2018-11-11T22:10:37.428Z,94.24
2018-11-11T22:13:05.076Z,94.13
2018-11-11T22:15:32.344Z,94.33
2018-11-11T22:17:59.648Z,93.90
2018-11-11T22:20:26.883Z,93.71
2018-11-11T22:22:54.190Z,93.80
2018-11-11T22:25:21.431Z,93.15
2018-11-11T22:27:48.621Z,93.80
2018-11-11T22:30:15.848Z,93.24
2018-11-11T22:32:43.121Z,93.70
2018-11-11T22:35:11.086Z,94.14
2018-11-11T22:37:38.345Z,93.63
2018-11-11T22:40:06.959Z,93.56
2018-11-11T22:42:34.402Z,93.01
2018-11-11T22:45:01.658Z,93.37
2018-11-11T22:47:28.923Z,92.93
2018-11-11T22:49:56.147Z,92.90
2018-11-11T22:52:23.389Z,92.71
2018-11-11T22:54:50.852Z,93.24
2018-11-11T22:57:18.072Z,93.81
2018-11-11T22:59:45.344Z,94.07
2018-11-11T23:02:12.636Z,94.05
2018-11-11T23:04:39.915Z,93.90
2018-11-11T23:07:07.149Z,93.54
2018-11-11T23:09:34.364Z,93.95
2018-11-11T23:12:01.672Z,93.41
2018-11-11T23:14:28.916Z,94.10
2018-11-11T23:16:56.128Z,93.37
2018-11-11T23:19:23.369Z,92.94
2018-11-11T23:21:50.601Z,93.53
2018-11-11T23:24:17.824Z,93.35
2018-11-11T23:26:45.388Z,92.94
2018-11-11T23:29:12.649Z,93.11
2018-11-11T23:31:39.890Z,92.61
2018-11-11T23:34:07.185Z,92.83
2018-11-11T23:36:34.432Z,92.44
2018-11-11T23:39:01.669Z,91.84
2018-11-11T23:41:28.909Z,92.35
2018-11-11T23:43:56.192Z,91.81
2018-11-11T23:46:23.467Z,92.35
2018-11-11T23:48:50.795Z,91.34
2018-11-11T23:51:18.021Z,92.44
2018-11-11T23:53:45.274Z,92.49
2018-11-11T23:56:12.529Z,92.62
2018-11-11T23:58:39.742Z,92.35
